Terminal Aerodrome Forecast
Issued by NWS Spokane, WA

Home | Current Version | Previous Version | Text Only | Print | Product List | Glossary On
Versions: 1 2 3 4 5 6 7 8 9 10 11 12 13 14 15 16 17 18 19 20 21 22
000
FTUS46 KOTX 272330
TAFGEG
TAF
KGEG 272330Z 2800/2824 22015G20KT P6SM VCSH SCT030 OVC050
     FM280600 20009KT P6SM BKN040 OVC060
     FM281100 21009KT P6SM FEW015 BKN070
     FM281800 22010G15KT P6SM BKN050 PROB30 2820/2824 -SHRA=

USA.gov is the U.S. government's official web portal to all federal, state and local government web resources and services.